sensor_id;sensor_type;location;lat;lon;timestamp;P1;durP1;ratioP1;P2;durP2;ratioP2
16436;SDS011;8328;52.206;21.006;2022-08-21T00:01:19;6.53;;;4.53;;
16436;SDS011;8328;52.206;21.006;2022-08-21T00:03:47;6.40;;;4.97;;
16436;SDS011;8328;52.206;21.006;2022-08-21T00:06:13;6.30;;;4.70;;
16436;SDS011;8328;52.206;21.006;2022-08-21T00:08:39;7.20;;;5.00;;
16436;SDS011;8328;52.206;21.006;2022-08-21T00:11:06;6.17;;;4.67;;
16436;SDS011;8328;52.206;21.006;2022-08-21T00:13:32;10.20;;;5.07;;
16436;SDS011;8328;52.206;21.006;2022-08-21T00:15:58;6.43;;;5.13;;
16436;SDS011;8328;52.206;21.006;2022-08-21T00:18:24;6.37;;;4.97;;
16436;SDS011;8328;52.206;21.006;2022-08-21T00:20:51;6.07;;;5.00;;
16436;SDS011;8328;52.206;21.006;2022-08-21T00:23:17;7.07;;;4.80;;
16436;SDS011;8328;52.206;21.006;2022-08-21T00:25:43;5.50;;;4.70;;
16436;SDS011;8328;52.206;21.006;2022-08-21T00:28:09;6.53;;;5.30;;
16436;SDS011;8328;52.206;21.006;2022-08-21T00:30:36;8.00;;;4.87;;
16436;SDS011;8328;52.206;21.006;2022-08-21T00:33:03;6.07;;;4.97;;
16436;SDS011;8328;52.206;21.006;2022-08-21T00:35:36;6.00;;;4.93;;
16436;SDS011;8328;52.206;21.006;2022-08-21T00:38:05;9.93;;;5.30;;
16436;SDS011;8328;52.206;21.006;2022-08-21T00:40:38;5.43;;;4.93;;
16436;SDS011;8328;52.206;21.006;2022-08-21T00:43:09;6.27;;;5.00;;
16436;SDS011;8328;52.206;21.006;2022-08-21T00:45:36;5.70;;;5.10;;
16436;SDS011;8328;52.206;21.006;2022-08-21T00:48:03;5.23;;;4.73;;
16436;SDS011;8328;52.206;21.006;2022-08-21T00:50:31;6.27;;;4.80;;
16436;SDS011;8328;52.206;21.006;2022-08-21T00:53:00;5.57;;;5.07;;
16436;SDS011;8328;52.206;21.006;2022-08-21T00:55:28;5.43;;;4.83;;
16436;SDS011;8328;52.206;21.006;2022-08-21T00:57:56;8.00;;;5.17;;
16436;SDS011;8328;52.206;21.006;2022-08-21T01:00:26;6.93;;;4.60;;
16436;SDS011;8328;52.206;21.006;2022-08-21T01:02:56;5.77;;;5.00;;
16436;SDS011;8328;52.206;21.006;2022-08-21T01:05:23;5.63;;;4.90;;
16436;SDS011;8328;52.206;21.006;2022-08-21T01:07:49;6.93;;;5.27;;
16436;SDS011;8328;52.206;21.006;2022-08-21T01:10:15;6.87;;;5.07;;
16436;SDS011;8328;52.206;21.006;2022-08-21T01:12:41;7.03;;;5.10;;
16436;SDS011;8328;52.206;21.006;2022-08-21T01:15:08;6.33;;;5.20;;
16436;SDS011;8328;52.206;21.006;2022-08-21T01:17:36;5.77;;;4.67;;
16436;SDS011;8328;52.206;21.006;2022-08-21T01:20:05;6.93;;;4.90;;
16436;SDS011;8328;52.206;21.006;2022-08-21T01:22:34;6.97;;;4.83;;
16436;SDS011;8328;52.206;21.006;2022-08-21T01:25:03;5.63;;;5.13;;
16436;SDS011;8328;52.206;21.006;2022-08-21T01:27:30;5.30;;;4.57;;
16436;SDS011;8328;52.206;21.006;2022-08-21T01:29:57;6.60;;;5.23;;
16436;SDS011;8328;52.206;21.006;2022-08-21T01:32:28;6.93;;;4.90;;
16436;SDS011;8328;52.206;21.006;2022-08-21T01:34:55;6.13;;;4.80;;
16436;SDS011;8328;52.206;21.006;2022-08-21T01:37:21;5.47;;;4.83;;
16436;SDS011;8328;52.206;21.006;2022-08-21T01:39:47;6.80;;;4.97;;
16436;SDS011;8328;52.206;21.006;2022-08-21T01:42:14;7.53;;;4.83;;
16436;SDS011;8328;52.206;21.006;2022-08-21T01:44:40;5.87;;;4.83;;
16436;SDS011;8328;52.206;21.006;2022-08-21T01:47:06;6.20;;;4.90;;
16436;SDS011;8328;52.206;21.006;2022-08-21T01:49:34;5.80;;;4.83;;
16436;SDS011;8328;52.206;21.006;2022-08-21T01:52:02;5.07;;;4.67;;
16436;SDS011;8328;52.206;21.006;2022-08-21T01:54:28;5.13;;;4.63;;
16436;SDS011;8328;52.206;21.006;2022-08-21T01:56:55;5.63;;;4.63;;
16436;SDS011;8328;52.206;21.006;2022-08-21T01:59:22;7.60;;;5.07;;
16436;SDS011;8328;52.206;21.006;2022-08-21T02:01:49;5.37;;;4.87;;
16436;SDS011;8328;52.206;21.006;2022-08-21T02:04:15;7.63;;;4.87;;
16436;SDS011;8328;52.206;21.006;2022-08-21T02:06:42;5.17;;;4.67;;
16436;SDS011;8328;52.206;21.006;2022-08-21T02:09:08;6.20;;;4.70;;
16436;SDS011;8328;52.206;21.006;2022-08-21T02:11:35;5.63;;;4.80;;
16436;SDS011;8328;52.206;21.006;2022-08-21T02:14:05;6.13;;;4.87;;
16436;SDS011;8328;52.206;21.006;2022-08-21T02:16:32;6.27;;;4.97;;
16436;SDS011;8328;52.206;21.006;2022-08-21T02:18:58;5.43;;;4.53;;
16436;SDS011;8328;52.206;21.006;2022-08-21T02:21:24;6.63;;;4.70;;
16436;SDS011;8328;52.206;21.006;2022-08-21T02:23:50;9.73;;;5.27;;
16436;SDS011;8328;52.206;21.006;2022-08-21T02:26:16;5.23;;;4.73;;
16436;SDS011;8328;52.206;21.006;2022-08-21T02:28:42;6.03;;;5.00;;
16436;SDS011;8328;52.206;21.006;2022-08-21T02:31:11;6.00;;;5.00;;
16436;SDS011;8328;52.206;21.006;2022-08-21T02:33:37;6.13;;;4.97;;
16436;SDS011;8328;52.206;21.006;2022-08-21T02:36:03;5.53;;;4.77;;
16436;SDS011;8328;52.206;21.006;2022-08-21T02:38:30;5.57;;;5.07;;
16436;SDS011;8328;52.206;21.006;2022-08-21T02:40:59;5.10;;;4.43;;
16436;SDS011;8328;52.206;21.006;2022-08-21T02:43:26;7.43;;;5.30;;
16436;SDS011;8328;52.206;21.006;2022-08-21T02:45:54;5.50;;;5.00;;
16436;SDS011;8328;52.206;21.006;2022-08-21T02:48:22;7.03;;;4.73;;
16436;SDS011;8328;52.206;21.006;2022-08-21T02:50:56;5.77;;;5.17;;
16436;SDS011;8328;52.206;21.006;2022-08-21T02:53:29;6.43;;;5.20;;
16436;SDS011;8328;52.206;21.006;2022-08-21T02:55:57;6.17;;;5.40;;
16436;SDS011;8328;52.206;21.006;2022-08-21T02:58:31;5.73;;;5.23;;
16436;SDS011;8328;52.206;21.006;2022-08-21T03:01:00;7.37;;;5.23;;
16436;SDS011;8328;52.206;21.006;2022-08-21T03:03:26;5.57;;;4.93;;
16436;SDS011;8328;52.206;21.006;2022-08-21T03:05:53;5.80;;;5.27;;
16436;SDS011;8328;52.206;21.006;2022-08-21T03:08:20;5.93;;;5.33;;
16436;SDS011;8328;52.206;21.006;2022-08-21T03:10:47;7.03;;;5.40;;
16436;SDS011;8328;52.206;21.006;2022-08-21T03:13:15;5.70;;;5.13;;
16436;SDS011;8328;52.206;21.006;2022-08-21T03:15:43;8.00;;;5.40;;
16436;SDS011;8328;52.206;21.006;2022-08-21T03:18:09;5.97;;;5.40;;
16436;SDS011;8328;52.206;21.006;2022-08-21T03:20:36;7.27;;;4.97;;
16436;SDS011;8328;52.206;21.006;2022-08-21T03:23:03;7.00;;;5.80;;
16436;SDS011;8328;52.206;21.006;2022-08-21T03:25:30;6.00;;;5.37;;
16436;SDS011;8328;52.206;21.006;2022-08-21T03:28:03;6.30;;;5.27;;
16436;SDS011;8328;52.206;21.006;2022-08-21T03:30:30;6.33;;;5.67;;
16436;SDS011;8328;52.206;21.006;2022-08-21T03:32:57;6.60;;;5.90;;
16436;SDS011;8328;52.206;21.006;2022-08-21T03:35:23;5.23;;;4.80;;
16436;SDS011;8328;52.206;21.006;2022-08-21T03:37:49;6.20;;;5.33;;
16436;SDS011;8328;52.206;21.006;2022-08-21T03:40:16;6.07;;;5.53;;
16436;SDS011;8328;52.206;21.006;2022-08-21T03:42:43;5.77;;;5.27;;
16436;SDS011;8328;52.206;21.006;2022-08-21T03:45:12;6.80;;;5.80;;
16436;SDS011;8328;52.206;21.006;2022-08-21T03:47:39;6.50;;;5.20;;
16436;SDS011;8328;52.206;21.006;2022-08-21T03:50:15;7.70;;;5.47;;
16436;SDS011;8328;52.206;21.006;2022-08-21T03:52:42;7.83;;;5.67;;
16436;SDS011;8328;52.206;21.006;2022-08-21T03:55:10;6.10;;;5.50;;
16436;SDS011;8328;52.206;21.006;2022-08-21T03:57:36;5.30;;;4.87;;
16436;SDS011;8328;52.206;21.006;2022-08-21T04:00:03;7.03;;;5.30;;
16436;SDS011;8328;52.206;21.006;2022-08-21T04:02:29;5.53;;;5.03;;
16436;SDS011;8328;52.206;21.006;2022-08-21T04:04:55;6.70;;;5.43;;
16436;SDS011;8328;52.206;21.006;2022-08-21T04:07:21;6.77;;;5.37;;
16436;SDS011;8328;52.206;21.006;2022-08-21T04:09:47;6.27;;;5.03;;
16436;SDS011;8328;52.206;21.006;2022-08-21T04:12:13;8.53;;;5.37;;
16436;SDS011;8328;52.206;21.006;2022-08-21T04:14:38;5.93;;;5.27;;
16436;SDS011;8328;52.206;21.006;2022-08-21T04:17:04;5.17;;;4.77;;
16436;SDS011;8328;52.206;21.006;2022-08-21T04:19:30;6.97;;;5.27;;
16436;SDS011;8328;52.206;21.006;2022-08-21T04:21:56;8.37;;;5.30;;
16436;SDS011;8328;52.206;21.006;2022-08-21T04:24:22;5.57;;;5.07;;
16436;SDS011;8328;52.206;21.006;2022-08-21T04:26:48;5.10;;;4.60;;
16436;SDS011;8328;52.206;21.006;2022-08-21T04:29:14;5.77;;;5.17;;
16436;SDS011;8328;52.206;21.006;2022-08-21T04:31:39;10.83;;;5.77;;
16436;SDS011;8328;52.206;21.006;2022-08-21T04:34:05;5.83;;;5.03;;
16436;SDS011;8328;52.206;21.006;2022-08-21T04:36:32;5.53;;;5.03;;
16436;SDS011;8328;52.206;21.006;2022-08-21T04:38:58;5.60;;;4.97;;
16436;SDS011;8328;52.206;21.006;2022-08-21T04:41:24;5.80;;;5.30;;
16436;SDS011;8328;52.206;21.006;2022-08-21T04:43:50;5.23;;;4.73;;
16436;SDS011;8328;52.206;21.006;2022-08-21T04:46:16;5.23;;;4.43;;
16436;SDS011;8328;52.206;21.006;2022-08-21T04:48:43;6.17;;;5.07;;
16436;SDS011;8328;52.206;21.006;2022-08-21T04:51:23;6.03;;;5.20;;
16436;SDS011;8328;52.206;21.006;2022-08-21T04:54:00;5.73;;;4.80;;
16436;SDS011;8328;52.206;21.006;2022-08-21T04:57:21;5.07;;;4.60;;
16436;SDS011;8328;52.206;21.006;2022-08-21T04:59:43;8.43;;;5.40;;
16436;SDS011;8328;52.206;21.006;2022-08-21T05:02:12;5.43;;;4.93;;
16436;SDS011;8328;52.206;21.006;2022-08-21T05:04:43;5.97;;;5.10;;
16436;SDS011;8328;52.206;21.006;2022-08-21T05:07:15;5.30;;;4.80;;
16436;SDS011;8328;52.206;21.006;2022-08-21T05:09:45;6.07;;;4.83;;
16436;SDS011;8328;52.206;21.006;2022-08-21T05:12:11;6.27;;;5.27;;
16436;SDS011;8328;52.206;21.006;2022-08-21T05:14:37;5.40;;;4.90;;
16436;SDS011;8328;52.206;21.006;2022-08-21T05:17:04;5.23;;;4.73;;
16436;SDS011;8328;52.206;21.006;2022-08-21T05:19:30;9.03;;;4.90;;
16436;SDS011;8328;52.206;21.006;2022-08-21T05:21:56;5.37;;;4.83;;
16436;SDS011;8328;52.206;21.006;2022-08-21T05:24:22;6.47;;;5.10;;
16436;SDS011;8328;52.206;21.006;2022-08-21T05:26:48;6.93;;;5.20;;
16436;SDS011;8328;52.206;21.006;2022-08-21T05:29:15;5.70;;;4.80;;
16436;SDS011;8328;52.206;21.006;2022-08-21T05:31:41;6.83;;;5.03;;
16436;SDS011;8328;52.206;21.006;2022-08-21T05:34:07;5.47;;;4.80;;
16436;SDS011;8328;52.206;21.006;2022-08-21T05:36:33;7.60;;;5.23;;
16436;SDS011;8328;52.206;21.006;2022-08-21T05:38:59;5.67;;;5.17;;
16436;SDS011;8328;52.206;21.006;2022-08-21T05:41:25;8.23;;;4.80;;
16436;SDS011;8328;52.206;21.006;2022-08-21T05:43:51;5.67;;;5.17;;
16436;SDS011;8328;52.206;21.006;2022-08-21T05:46:17;5.60;;;5.00;;
16436;SDS011;8328;52.206;21.006;2022-08-21T05:48:44;6.27;;;5.23;;
16436;SDS011;8328;52.206;21.006;2022-08-21T05:51:15;5.67;;;5.17;;
16436;SDS011;8328;52.206;21.006;2022-08-21T05:53:45;6.97;;;5.40;;
16436;SDS011;8328;52.206;21.006;2022-08-21T05:56:14;6.73;;;5.17;;
16436;SDS011;8328;52.206;21.006;2022-08-21T05:58:41;5.73;;;4.87;;
16436;SDS011;8328;52.206;21.006;2022-08-21T06:01:07;5.70;;;5.20;;
16436;SDS011;8328;52.206;21.006;2022-08-21T06:03:35;5.83;;;5.33;;
16436;SDS011;8328;52.206;21.006;2022-08-21T06:06:03;5.50;;;4.77;;
16436;SDS011;8328;52.206;21.006;2022-08-21T06:08:29;5.87;;;5.00;;
16436;SDS011;8328;52.206;21.006;2022-08-21T06:10:56;5.30;;;4.80;;
16436;SDS011;8328;52.206;21.006;2022-08-21T06:13:25;5.13;;;4.63;;
16436;SDS011;8328;52.206;21.006;2022-08-21T06:16:00;6.00;;;4.90;;
16436;SDS011;8328;52.206;21.006;2022-08-21T06:18:37;7.17;;;5.17;;
16436;SDS011;8328;52.206;21.006;2022-08-21T06:21:04;5.67;;;5.17;;
16436;SDS011;8328;52.206;21.006;2022-08-21T06:23:30;6.73;;;4.90;;
16436;SDS011;8328;52.206;21.006;2022-08-21T06:25:58;5.47;;;4.97;;
16436;SDS011;8328;52.206;21.006;2022-08-21T06:28:28;6.63;;;5.37;;
16436;SDS011;8328;52.206;21.006;2022-08-21T06:30:59;6.13;;;4.90;;
16436;SDS011;8328;52.206;21.006;2022-08-21T06:33:24;7.63;;;5.00;;
16436;SDS011;8328;52.206;21.006;2022-08-21T06:35:50;5.53;;;4.83;;
16436;SDS011;8328;52.206;21.006;2022-08-21T06:38:16;6.23;;;5.10;;
16436;SDS011;8328;52.206;21.006;2022-08-21T06:40:42;5.30;;;4.80;;
16436;SDS011;8328;52.206;21.006;2022-08-21T06:43:11;5.03;;;4.63;;
16436;SDS011;8328;52.206;21.006;2022-08-21T06:45:39;5.33;;;4.87;;
16436;SDS011;8328;52.206;21.006;2022-08-21T06:48:05;5.20;;;4.70;;
16436;SDS011;8328;52.206;21.006;2022-08-21T06:50:34;7.10;;;5.37;;
16436;SDS011;8328;52.206;21.006;2022-08-21T06:53:09;7.23;;;4.73;;
16436;SDS011;8328;52.206;21.006;2022-08-21T06:55:36;5.33;;;4.83;;
16436;SDS011;8328;52.206;21.006;2022-08-21T06:58:03;7.53;;;5.40;;
16436;SDS011;8328;52.206;21.006;2022-08-21T07:00:30;5.90;;;4.70;;
16436;SDS011;8328;52.206;21.006;2022-08-21T07:02:56;5.47;;;5.00;;
16436;SDS011;8328;52.206;21.006;2022-08-21T07:05:24;7.43;;;5.00;;
16436;SDS011;8328;52.206;21.006;2022-08-21T07:07:51;6.57;;;4.93;;
16436;SDS011;8328;52.206;21.006;2022-08-21T07:10:17;5.43;;;4.70;;
16436;SDS011;8328;52.206;21.006;2022-08-21T07:12:42;5.20;;;4.80;;
16436;SDS011;8328;52.206;21.006;2022-08-21T07:15:09;6.03;;;5.10;;
16436;SDS011;8328;52.206;21.006;2022-08-21T07:17:35;5.50;;;5.00;;
16436;SDS011;8328;52.206;21.006;2022-08-21T07:20:01;5.57;;;5.00;;
16436;SDS011;8328;52.206;21.006;2022-08-21T07:22:28;5.30;;;4.80;;
16436;SDS011;8328;52.206;21.006;2022-08-21T07:24:54;7.20;;;4.50;;
16436;SDS011;8328;52.206;21.006;2022-08-21T07:27:20;7.37;;;4.80;;
16436;SDS011;8328;52.206;21.006;2022-08-21T07:29:46;7.63;;;4.57;;
16436;SDS011;8328;52.206;21.006;2022-08-21T07:32:12;7.07;;;5.50;;
16436;SDS011;8328;52.206;21.006;2022-08-21T07:34:40;5.87;;;4.80;;
16436;SDS011;8328;52.206;21.006;2022-08-21T07:37:06;5.73;;;4.93;;
16436;SDS011;8328;52.206;21.006;2022-08-21T07:39:32;6.23;;;4.60;;
16436;SDS011;8328;52.206;21.006;2022-08-21T07:41:57;6.17;;;4.87;;
16436;SDS011;8328;52.206;21.006;2022-08-21T07:44:23;5.20;;;4.70;;
16436;SDS011;8328;52.206;21.006;2022-08-21T07:46:49;6.70;;;4.53;;
16436;SDS011;8328;52.206;21.006;2022-08-21T07:49:15;5.10;;;4.60;;
16436;SDS011;8328;52.206;21.006;2022-08-21T07:51:41;5.00;;;4.43;;
16436;SDS011;8328;52.206;21.006;2022-08-21T07:54:06;7.20;;;4.50;;
16436;SDS011;8328;52.206;21.006;2022-08-21T07:56:33;5.50;;;5.00;;
16436;SDS011;8328;52.206;21.006;2022-08-21T07:58:59;5.80;;;4.77;;
16436;SDS011;8328;52.206;21.006;2022-08-21T08:01:25;6.93;;;5.17;;
16436;SDS011;8328;52.206;21.006;2022-08-21T08:03:51;5.23;;;4.70;;
16436;SDS011;8328;52.206;21.006;2022-08-21T08:06:17;6.30;;;4.50;;
16436;SDS011;8328;52.206;21.006;2022-08-21T08:08:44;5.50;;;4.53;;
16436;SDS011;8328;52.206;21.006;2022-08-21T08:11:11;7.53;;;4.57;;
16436;SDS011;8328;52.206;21.006;2022-08-21T08:13:40;5.60;;;4.60;;
16436;SDS011;8328;52.206;21.006;2022-08-21T08:16:08;4.87;;;4.23;;
16436;SDS011;8328;52.206;21.006;2022-08-21T08:18:34;7.23;;;6.40;;
16436;SDS011;8328;52.206;21.006;2022-08-21T08:20:59;7.00;;;4.77;;
16436;SDS011;8328;52.206;21.006;2022-08-21T08:23:25;5.57;;;4.60;;
16436;SDS011;8328;52.206;21.006;2022-08-21T08:25:52;5.00;;;4.50;;
16436;SDS011;8328;52.206;21.006;2022-08-21T08:28:18;5.70;;;4.90;;
16436;SDS011;8328;52.206;21.006;2022-08-21T08:30:46;4.53;;;4.23;;
16436;SDS011;8328;52.206;21.006;2022-08-21T08:33:12;5.23;;;4.50;;
16436;SDS011;8328;52.206;21.006;2022-08-21T08:35:42;5.70;;;4.27;;
16436;SDS011;8328;52.206;21.006;2022-08-21T08:38:11;6.20;;;4.47;;
16436;SDS011;8328;52.206;21.006;2022-08-21T08:43:16;4.30;;;3.90;;
16436;SDS011;8328;52.206;21.006;2022-08-21T08:45:44;6.17;;;4.50;;
16436;SDS011;8328;52.206;21.006;2022-08-21T08:48:14;4.73;;;4.33;;
16436;SDS011;8328;52.206;21.006;2022-08-21T08:51:01;4.57;;;4.17;;
16436;SDS011;8328;52.206;21.006;2022-08-21T08:53:33;8.03;;;4.83;;
16436;SDS011;8328;52.206;21.006;2022-08-21T08:56:07;5.00;;;4.50;;
16436;SDS011;8328;52.206;21.006;2022-08-21T08:58:34;7.47;;;4.50;;
16436;SDS011;8328;52.206;21.006;2022-08-21T09:01:05;8.30;;;5.60;;
16436;SDS011;8328;52.206;21.006;2022-08-21T09:03:44;5.23;;;4.73;;
16436;SDS011;8328;52.206;21.006;2022-08-21T09:14:47;8.33;;;4.50;;
16436;SDS011;8328;52.206;21.006;2022-08-21T09:26:11;4.33;;;3.67;;
16436;SDS011;8328;52.206;21.006;2022-08-21T09:28:45;4.10;;;3.70;;
16436;SDS011;8328;52.206;21.006;2022-08-21T09:31:22;4.30;;;3.90;;
16436;SDS011;8328;52.206;21.006;2022-08-21T09:33:57;3.90;;;3.60;;
16436;SDS011;8328;52.206;21.006;2022-08-21T09:36:25;5.50;;;3.60;;
16436;SDS011;8328;52.206;21.006;2022-08-21T09:39:08;5.63;;;3.50;;
16436;SDS011;8328;52.206;21.006;2022-08-21T09:41:35;5.53;;;3.40;;
16436;SDS011;8328;52.206;21.006;2022-08-21T09:44:02;4.00;;;3.70;;
16436;SDS011;8328;52.206;21.006;2022-08-21T09:46:33;5.40;;;3.60;;
16436;SDS011;8328;52.206;21.006;2022-08-21T09:49:02;4.97;;;3.60;;
16436;SDS011;8328;52.206;21.006;2022-08-21T09:51:30;5.33;;;3.20;;
16436;SDS011;8328;52.206;21.006;2022-08-21T09:56:36;4.40;;;3.20;;
16436;SDS011;8328;52.206;21.006;2022-08-21T09:59:30;3.77;;;3.40;;
16436;SDS011;8328;52.206;21.006;2022-08-21T10:01:59;6.17;;;3.20;;
16436;SDS011;8328;52.206;21.006;2022-08-21T10:04:31;4.47;;;3.30;;
16436;SDS011;8328;52.206;21.006;2022-08-21T10:07:11;4.00;;;3.60;;
16436;SDS011;8328;52.206;21.006;2022-08-21T10:09:39;5.27;;;3.43;;
16436;SDS011;8328;52.206;21.006;2022-08-21T10:28:10;4.27;;;3.53;;
16436;SDS011;8328;52.206;21.006;2022-08-21T10:31:03;4.97;;;3.40;;
16436;SDS011;8328;52.206;21.006;2022-08-21T10:33:50;3.97;;;3.60;;
16436;SDS011;8328;52.206;21.006;2022-08-21T10:36:34;4.20;;;3.03;;
16436;SDS011;8328;52.206;21.006;2022-08-21T10:39:13;3.90;;;3.10;;
16436;SDS011;8328;52.206;21.006;2022-08-21T10:47:11;3.60;;;3.30;;
16436;SDS011;8328;52.206;21.006;2022-08-21T10:49:48;4.93;;;3.27;;
16436;SDS011;8328;52.206;21.006;2022-08-21T10:52:39;3.63;;;3.10;;
16436;SDS011;8328;52.206;21.006;2022-08-21T10:55:32;4.33;;;2.83;;
16436;SDS011;8328;52.206;21.006;2022-08-21T10:58:05;4.13;;;3.20;;
16436;SDS011;8328;52.206;21.006;2022-08-21T11:00:49;5.60;;;3.20;;
16436;SDS011;8328;52.206;21.006;2022-08-21T11:06:13;4.77;;;3.23;;
16436;SDS011;8328;52.206;21.006;2022-08-21T11:08:57;5.67;;;3.97;;
16436;SDS011;8328;52.206;21.006;2022-08-21T11:11:39;3.60;;;3.20;;
16436;SDS011;8328;52.206;21.006;2022-08-21T11:14:20;3.60;;;2.63;;
16436;SDS011;8328;52.206;21.006;2022-08-21T11:17:00;3.07;;;2.83;;
16436;SDS011;8328;52.206;21.006;2022-08-21T11:19:35;4.27;;;2.90;;
16436;SDS011;8328;52.206;21.006;2022-08-21T11:25:19;2.87;;;2.60;;
16436;SDS011;8328;52.206;21.006;2022-08-21T11:27:49;4.47;;;3.00;;
16436;SDS011;8328;52.206;21.006;2022-08-21T11:30:24;3.27;;;2.70;;
16436;SDS011;8328;52.206;21.006;2022-08-21T11:33:07;4.73;;;2.67;;
16436;SDS011;8328;52.206;21.006;2022-08-21T11:35:46;5.17;;;2.60;;
16436;SDS011;8328;52.206;21.006;2022-08-21T11:38:25;3.13;;;2.30;;
16436;SDS011;8328;52.206;21.006;2022-08-21T11:44:10;4.57;;;2.73;;
16436;SDS011;8328;52.206;21.006;2022-08-21T11:51:54;3.00;;;2.80;;
16436;SDS011;8328;52.206;21.006;2022-08-21T12:00:47;3.30;;;2.57;;
16436;SDS011;8328;52.206;21.006;2022-08-21T12:02:49;3.13;;;2.60;;
16436;SDS011;8328;52.206;21.006;2022-08-21T12:05:29;2.73;;;2.53;;
16436;SDS011;8328;52.206;21.006;2022-08-21T12:08:12;3.07;;;2.63;;
16436;SDS011;8328;52.206;21.006;2022-08-21T12:13:32;3.90;;;2.63;;
16436;SDS011;8328;52.206;21.006;2022-08-21T12:16:11;3.88;;;2.70;;
16436;SDS011;8328;52.206;21.006;2022-08-21T12:19:02;2.60;;;2.40;;
16436;SDS011;8328;52.206;21.006;2022-08-21T12:21:33;3.92;;;2.50;;
16436;SDS011;8328;52.206;21.006;2022-08-21T12:29:24;4.43;;;2.50;;
16436;SDS011;8328;52.206;21.006;2022-08-21T12:32:04;3.35;;;2.28;;
16436;SDS011;8328;52.206;21.006;2022-08-21T12:35:07;2.50;;;2.30;;
16436;SDS011;8328;52.206;21.006;2022-08-21T12:37:42;2.80;;;2.50;;
16436;SDS011;8328;52.206;21.006;2022-08-21T12:40:37;3.00;;;2.40;;
16436;SDS011;8328;52.206;21.006;2022-08-21T12:43:06;2.73;;;2.50;;
16436;SDS011;8328;52.206;21.006;2022-08-21T12:45:43;3.87;;;2.37;;
16436;SDS011;8328;52.206;21.006;2022-08-21T12:48:26;3.33;;;2.43;;
16436;SDS011;8328;52.206;21.006;2022-08-21T12:51:36;3.20;;;2.90;;
16436;SDS011;8328;52.206;21.006;2022-08-21T12:57:05;3.05;;;2.72;;
16436;SDS011;8328;52.206;21.006;2022-08-21T12:59:36;2.72;;;2.42;;
16436;SDS011;8328;52.206;21.006;2022-08-21T13:02:10;2.78;;;2.58;;
16436;SDS011;8328;52.206;21.006;2022-08-21T13:04:44;2.63;;;2.33;;
16436;SDS011;8328;52.206;21.006;2022-08-21T13:07:12;2.50;;;2.30;;
16436;SDS011;8328;52.206;21.006;2022-08-21T13:09:46;3.20;;;2.40;;
16436;SDS011;8328;52.206;21.006;2022-08-21T13:12:14;3.50;;;2.57;;
16436;SDS011;8328;52.206;21.006;2022-08-21T13:14:43;3.73;;;2.80;;
16436;SDS011;8328;52.206;21.006;2022-08-21T13:17:12;2.70;;;2.50;;
16436;SDS011;8328;52.206;21.006;2022-08-21T13:19:52;3.93;;;2.70;;
16436;SDS011;8328;52.206;21.006;2022-08-21T13:22:26;3.57;;;2.57;;
16436;SDS011;8328;52.206;21.006;2022-08-21T13:24:52;3.03;;;2.73;;
16436;SDS011;8328;52.206;21.006;2022-08-21T13:27:26;3.03;;;2.77;;
16436;SDS011;8328;52.206;21.006;2022-08-21T13:30:01;3.27;;;2.77;;
16436;SDS011;8328;52.206;21.006;2022-08-21T13:32:33;5.20;;;2.60;;
16436;SDS011;8328;52.206;21.006;2022-08-21T13:35:23;4.03;;;2.80;;
16436;SDS011;8328;52.206;21.006;2022-08-21T13:37:55;2.80;;;2.50;;
16436;SDS011;8328;52.206;21.006;2022-08-21T13:40:30;6.03;;;5.23;;
16436;SDS011;8328;52.206;21.006;2022-08-21T13:43:09;3.33;;;2.60;;
16436;SDS011;8328;52.206;21.006;2022-08-21T13:45:38;5.17;;;2.60;;
16436;SDS011;8328;52.206;21.006;2022-08-21T13:48:04;4.10;;;2.60;;
16436;SDS011;8328;52.206;21.006;2022-08-21T13:50:31;3.17;;;2.70;;
16436;SDS011;8328;52.206;21.006;2022-08-21T13:55:52;2.90;;;2.60;;
16436;SDS011;8328;52.206;21.006;2022-08-21T13:58:25;3.93;;;2.40;;
16436;SDS011;8328;52.206;21.006;2022-08-21T14:00:51;3.07;;;2.50;;
16436;SDS011;8328;52.206;21.006;2022-08-21T14:03:32;2.90;;;2.60;;
16436;SDS011;8328;52.206;21.006;2022-08-21T14:06:11;3.90;;;2.90;;
16436;SDS011;8328;52.206;21.006;2022-08-21T14:08:49;3.47;;;3.13;;
16436;SDS011;8328;52.206;21.006;2022-08-21T14:11:20;8.07;;;3.20;;
16436;SDS011;8328;52.206;21.006;2022-08-21T14:13:51;3.93;;;3.03;;
16436;SDS011;8328;52.206;21.006;2022-08-21T14:16:27;3.53;;;2.90;;
16436;SDS011;8328;52.206;21.006;2022-08-21T14:21:48;5.23;;;2.80;;
16436;SDS011;8328;52.206;21.006;2022-08-21T14:24:30;4.00;;;3.07;;
16436;SDS011;8328;52.206;21.006;2022-08-21T14:27:06;6.07;;;2.90;;
16436;SDS011;8328;52.206;21.006;2022-08-21T14:29:34;6.10;;;2.90;;
16436;SDS011;8328;52.206;21.006;2022-08-21T14:32:15;2.53;;;2.33;;
16436;SDS011;8328;52.206;21.006;2022-08-21T14:34:45;4.00;;;2.97;;
16436;SDS011;8328;52.206;21.006;2022-08-21T14:37:11;2.50;;;2.30;;
16436;SDS011;8328;52.206;21.006;2022-08-21T14:39:36;3.87;;;2.63;;
16436;SDS011;8328;52.206;21.006;2022-08-21T14:42:03;2.70;;;2.50;;
16436;SDS011;8328;52.206;21.006;2022-08-21T14:44:30;2.70;;;2.50;;
16436;SDS011;8328;52.206;21.006;2022-08-21T14:46:57;3.67;;;2.53;;
16436;SDS011;8328;52.206;21.006;2022-08-21T14:49:25;5.03;;;2.80;;
16436;SDS011;8328;52.206;21.006;2022-08-21T14:51:53;2.70;;;2.50;;
16436;SDS011;8328;52.206;21.006;2022-08-21T14:54:22;4.23;;;2.90;;
16436;SDS011;8328;52.206;21.006;2022-08-21T14:56:49;5.50;;;2.90;;
16436;SDS011;8328;52.206;21.006;2022-08-21T14:59:16;4.23;;;2.80;;
16436;SDS011;8328;52.206;21.006;2022-08-21T15:01:44;4.00;;;3.60;;
16436;SDS011;8328;52.206;21.006;2022-08-21T15:04:10;3.13;;;2.80;;
16436;SDS011;8328;52.206;21.006;2022-08-21T15:06:36;3.90;;;2.70;;
16436;SDS011;8328;52.206;21.006;2022-08-21T15:09:02;4.07;;;2.87;;
16436;SDS011;8328;52.206;21.006;2022-08-21T15:11:30;2.67;;;2.47;;
16436;SDS011;8328;52.206;21.006;2022-08-21T15:13:57;3.27;;;2.97;;
16436;SDS011;8328;52.206;21.006;2022-08-21T15:16:27;5.27;;;3.60;;
16436;SDS011;8328;52.206;21.006;2022-08-21T15:18:55;3.10;;;2.80;;
16436;SDS011;8328;52.206;21.006;2022-08-21T15:21:21;2.60;;;2.40;;
16436;SDS011;8328;52.206;21.006;2022-08-21T15:23:46;4.23;;;2.93;;
16436;SDS011;8328;52.206;21.006;2022-08-21T15:26:12;4.80;;;2.70;;
16436;SDS011;8328;52.206;21.006;2022-08-21T15:28:39;6.73;;;6.00;;
16436;SDS011;8328;52.206;21.006;2022-08-21T15:31:05;4.70;;;2.80;;
16436;SDS011;8328;52.206;21.006;2022-08-21T15:33:31;3.10;;;2.80;;
16436;SDS011;8328;52.206;21.006;2022-08-21T15:35:58;4.20;;;2.80;;
16436;SDS011;8328;52.206;21.006;2022-08-21T15:38:24;5.80;;;2.50;;
16436;SDS011;8328;52.206;21.006;2022-08-21T15:40:50;2.30;;;2.10;;
16436;SDS011;8328;52.206;21.006;2022-08-21T15:43:25;2.90;;;2.60;;
16436;SDS011;8328;52.206;21.006;2022-08-21T15:45:53;2.80;;;2.47;;
16436;SDS011;8328;52.206;21.006;2022-08-21T15:48:19;3.20;;;2.50;;
16436;SDS011;8328;52.206;21.006;2022-08-21T15:50:45;4.57;;;2.60;;
16436;SDS011;8328;52.206;21.006;2022-08-21T15:53:11;2.63;;;2.40;;
16436;SDS011;8328;52.206;21.006;2022-08-21T15:55:37;3.40;;;3.10;;
16436;SDS011;8328;52.206;21.006;2022-08-21T15:58:04;2.80;;;2.60;;
16436;SDS011;8328;52.206;21.006;2022-08-21T16:00:31;3.17;;;2.70;;
16436;SDS011;8328;52.206;21.006;2022-08-21T16:03:00;3.67;;;2.80;;
16436;SDS011;8328;52.206;21.006;2022-08-21T16:05:29;3.10;;;2.80;;
16436;SDS011;8328;52.206;21.006;2022-08-21T16:07:56;6.27;;;2.90;;
16436;SDS011;8328;52.206;21.006;2022-08-21T16:10:23;4.70;;;3.80;;
16436;SDS011;8328;52.206;21.006;2022-08-21T16:12:51;4.53;;;3.90;;
16436;SDS011;8328;52.206;21.006;2022-08-21T16:15:22;3.67;;;3.27;;
16436;SDS011;8328;52.206;21.006;2022-08-21T16:17:48;4.10;;;3.33;;
16436;SDS011;8328;52.206;21.006;2022-08-21T16:20:17;4.47;;;3.70;;
16436;SDS011;8328;52.206;21.006;2022-08-21T16:22:46;4.23;;;3.70;;
16436;SDS011;8328;52.206;21.006;2022-08-21T16:25:15;3.90;;;3.60;;